Sparta, Tennessee
Current Conditions -  °F | °C
As of 10:55 AM on Sunday 23 Nov 2014 (Local Time) from KSRB Reporting Station
Broken Clouds Broken Clouds  
Wind Chill: 55°   Ceiling: 2900
Heat Index: 55°   Visibility: 6mi
Dew Point: 54°   Wind: 6mph
Humidity: 94%   Direction: 170°S
Pressure: 29.8"   Gusts: NA
Location:  35.93°N, 85.46°W
Report Text: KSRB 231655Z AUTO 17005KT 6SM FEW013 SCT020 BKN029 13/12 A2980 RMK
Loading
Personal Weather Stations






























Interactive Weather Map New forecast layout! Learn more

10-Day Weather Forecast

Advertisements
Track Severe Weather on mobile